Observations for ROME URBE IT-AFB, Italy (LIRU)

LIRU 251750Z 36006KT CAVOK 26/20 Q1016  
LIRU 251650Z 34006KT 9999 FEW050 27/21 Q1015
LIRU 251550Z VRB03KT 9999 FEW030TCU 27/22 Q1015 
LIRU 251450Z VRB03KT CAVOK 25/23 Q1015  
LIRU 251350Z 25011KT 9999 -RA SCT025CB 22/20 Q1016 RETSRA   
LIRU 251306Z 14015KT 3000 TSRA SCT020CB 25/19 Q1015
LIRU 251250Z 20006KT 150V250 9999 VCTS FEW020CB SCT040 31/19 Q1015  
LIRU 251150Z VRB03KT 270V080 9999 FEW035 33/17 Q1015
LIRU 251050Z VRB03KT 300V070 CAVOK 31/17 Q1016  
LIRU 250950Z VRB03KT CAVOK 30/18 Q1016  
LIRU 250850Z VRB03KT CAVOK 27/19 Q1017  
LIRU 250750Z 03005KT CAVOK 25/19 Q1017  
LIRU 250650Z VRB03KT CAVOK 23/19 Q1017  
LIRU 250600Z VRB03KT CAVOK 21/19 Q1017